sensor_id;sensor_type;location;lat;lon;timestamp;P1;durP1;ratioP1;P2;durP2;ratioP2
49540;SDS011;35432;43.566;1.398;2023-02-01T00:01:08;25.67;;;13.43;;
49540;SDS011;35432;43.566;1.398;2023-02-01T00:03:34;27.27;;;14.65;;
49540;SDS011;35432;43.566;1.398;2023-02-01T00:06:00;26.43;;;14.30;;
49540;SDS011;35432;43.566;1.398;2023-02-01T00:08:25;28.10;;;15.07;;
49540;SDS011;35432;43.566;1.398;2023-02-01T00:11:24;26.57;;;14.30;;
49540;SDS011;35432;43.566;1.398;2023-02-01T00:13:43;24.77;;;12.88;;
49540;SDS011;35432;43.566;1.398;2023-02-01T00:16:09;23.57;;;12.03;;
49540;SDS011;35432;43.566;1.398;2023-02-01T00:18:37;21.63;;;10.65;;
49540;SDS011;35432;43.566;1.398;2023-02-01T00:21:03;19.48;;;9.35;;
49540;SDS011;35432;43.566;1.398;2023-02-01T00:23:31;15.53;;;7.43;;
49540;SDS011;35432;43.566;1.398;2023-02-01T00:26:00;14.00;;;7.30;;
49540;SDS011;35432;43.566;1.398;2023-02-01T00:28:26;14.35;;;7.03;;
49540;SDS011;35432;43.566;1.398;2023-02-01T00:31:01;12.33;;;6.07;;
49540;SDS011;35432;43.566;1.398;2023-02-01T00:33:29;15.45;;;6.55;;
49540;SDS011;35432;43.566;1.398;2023-02-01T00:35:56;13.57;;;6.90;;
49540;SDS011;35432;43.566;1.398;2023-02-01T00:38:23;14.47;;;6.77;;
49540;SDS011;35432;43.566;1.398;2023-02-01T00:40:48;12.55;;;6.43;;
49540;SDS011;35432;43.566;1.398;2023-02-01T00:43:13;14.80;;;6.90;;
49540;SDS011;35432;43.566;1.398;2023-02-01T00:45:39;11.90;;;6.47;;
49540;SDS011;35432;43.566;1.398;2023-02-01T00:48:04;14.27;;;7.57;;
49540;SDS011;35432;43.566;1.398;2023-02-01T00:50:30;14.57;;;7.25;;
49540;SDS011;35432;43.566;1.398;2023-02-01T00:52:55;16.33;;;7.10;;
49540;SDS011;35432;43.566;1.398;2023-02-01T00:55:21;14.73;;;7.37;;
49540;SDS011;35432;43.566;1.398;2023-02-01T00:57:46;15.63;;;7.53;;
49540;SDS011;35432;43.566;1.398;2023-02-01T01:00:11;17.33;;;7.53;;
49540;SDS011;35432;43.566;1.398;2023-02-01T01:02:37;15.40;;;7.03;;
49540;SDS011;35432;43.566;1.398;2023-02-01T01:05:03;16.67;;;7.67;;
49540;SDS011;35432;43.566;1.398;2023-02-01T01:07:28;17.48;;;7.57;;
49540;SDS011;35432;43.566;1.398;2023-02-01T01:09:53;15.20;;;7.33;;
49540;SDS011;35432;43.566;1.398;2023-02-01T01:12:19;17.65;;;7.80;;
49540;SDS011;35432;43.566;1.398;2023-02-01T01:14:45;15.57;;;8.10;;
49540;SDS011;35432;43.566;1.398;2023-02-01T01:17:10;15.97;;;7.60;;
49540;SDS011;35432;43.566;1.398;2023-02-01T01:19:36;14.45;;;7.50;;
49540;SDS011;35432;43.566;1.398;2023-02-01T01:22:01;17.00;;;7.27;;
49540;SDS011;35432;43.566;1.398;2023-02-01T01:24:27;15.77;;;7.20;;
49540;SDS011;35432;43.566;1.398;2023-02-01T01:26:52;15.13;;;7.40;;
49540;SDS011;35432;43.566;1.398;2023-02-01T01:29:18;13.63;;;6.35;;
49540;SDS011;35432;43.566;1.398;2023-02-01T01:31:43;15.97;;;6.50;;
49540;SDS011;35432;43.566;1.398;2023-02-01T01:34:09;16.30;;;6.40;;
49540;SDS011;35432;43.566;1.398;2023-02-01T01:36:34;16.33;;;5.73;;
49540;SDS011;35432;43.566;1.398;2023-02-01T01:39:00;14.50;;;6.50;;
49540;SDS011;35432;43.566;1.398;2023-02-01T01:41:27;15.73;;;5.73;;
49540;SDS011;35432;43.566;1.398;2023-02-01T01:44:05;14.10;;;6.40;;
49540;SDS011;35432;43.566;1.398;2023-02-01T01:46:34;11.38;;;5.70;;
49540;SDS011;35432;43.566;1.398;2023-02-01T01:51:42;11.65;;;5.22;;
49540;SDS011;35432;43.566;1.398;2023-02-01T01:54:14;11.67;;;5.80;;
49540;SDS011;35432;43.566;1.398;2023-02-01T01:56:43;15.60;;;6.28;;
49540;SDS011;35432;43.566;1.398;2023-02-01T01:59:14;15.25;;;5.55;;
49540;SDS011;35432;43.566;1.398;2023-02-01T02:01:40;15.33;;;5.87;;
49540;SDS011;35432;43.566;1.398;2023-02-01T02:04:06;16.13;;;6.05;;
49540;SDS011;35432;43.566;1.398;2023-02-01T02:06:42;12.53;;;5.33;;
49540;SDS011;35432;43.566;1.398;2023-02-01T02:09:13;12.80;;;5.65;;
49540;SDS011;35432;43.566;1.398;2023-02-01T02:11:39;13.75;;;5.82;;
49540;SDS011;35432;43.566;1.398;2023-02-01T02:14:05;14.70;;;5.40;;
49540;SDS011;35432;43.566;1.398;2023-02-01T02:20:10;11.20;;;5.38;;
49540;SDS011;35432;43.566;1.398;2023-02-01T02:34:15;11.50;;;5.30;;
49540;SDS011;35432;43.566;1.398;2023-02-01T02:43:05;13.47;;;4.60;;
49540;SDS011;35432;43.566;1.398;2023-02-01T02:48:54;14.75;;;5.20;;
49540;SDS011;35432;43.566;1.398;2023-02-01T02:52:09;11.23;;;5.00;;
49540;SDS011;35432;43.566;1.398;2023-02-01T02:54:40;10.70;;;4.45;;
49540;SDS011;35432;43.566;1.398;2023-02-01T02:57:24;13.33;;;5.00;;
49540;SDS011;35432;43.566;1.398;2023-02-01T03:00:12;13.43;;;5.32;;
49540;SDS011;35432;43.566;1.398;2023-02-01T03:03:01;11.18;;;4.38;;
49540;SDS011;35432;43.566;1.398;2023-02-01T03:05:46;9.77;;;4.65;;
49540;SDS011;35432;43.566;1.398;2023-02-01T03:08:16;12.95;;;5.18;;
49540;SDS011;35432;43.566;1.398;2023-02-01T03:15:56;12.25;;;5.22;;
49540;SDS011;35432;43.566;1.398;2023-02-01T03:18:32;11.43;;;4.80;;
49540;SDS011;35432;43.566;1.398;2023-02-01T03:21:06;10.43;;;4.90;;
49540;SDS011;35432;43.566;1.398;2023-02-01T03:23:35;11.63;;;4.70;;
49540;SDS011;35432;43.566;1.398;2023-02-01T03:26:03;9.80;;;4.43;;
49540;SDS011;35432;43.566;1.398;2023-02-01T03:28:33;12.75;;;4.90;;
49540;SDS011;35432;43.566;1.398;2023-02-01T03:31:01;10.32;;;4.38;;
49540;SDS011;35432;43.566;1.398;2023-02-01T03:33:27;10.68;;;4.50;;
49540;SDS011;35432;43.566;1.398;2023-02-01T03:46:27;9.85;;;4.25;;
49540;SDS011;35432;43.566;1.398;2023-02-01T03:49:02;9.80;;;3.97;;
49540;SDS011;35432;43.566;1.398;2023-02-01T03:51:32;9.82;;;4.30;;
49540;SDS011;35432;43.566;1.398;2023-02-01T03:53:58;12.55;;;4.60;;
49540;SDS011;35432;43.566;1.398;2023-02-01T03:56:27;13.75;;;5.10;;
49540;SDS011;35432;43.566;1.398;2023-02-01T03:58:54;11.43;;;4.50;;
49540;SDS011;35432;43.566;1.398;2023-02-01T04:01:24;10.83;;;4.63;;
49540;SDS011;35432;43.566;1.398;2023-02-01T04:03:51;10.85;;;4.38;;
49540;SDS011;35432;43.566;1.398;2023-02-01T04:06:16;9.67;;;4.57;;
49540;SDS011;35432;43.566;1.398;2023-02-01T04:08:42;9.65;;;4.30;;
49540;SDS011;35432;43.566;1.398;2023-02-01T04:11:07;9.17;;;4.53;;
49540;SDS011;35432;43.566;1.398;2023-02-01T04:13:33;12.00;;;4.33;;
49540;SDS011;35432;43.566;1.398;2023-02-01T04:15:58;9.45;;;3.70;;
49540;SDS011;35432;43.566;1.398;2023-02-01T04:18:24;9.47;;;3.77;;
49540;SDS011;35432;43.566;1.398;2023-02-01T04:20:49;8.60;;;3.90;;
49540;SDS011;35432;43.566;1.398;2023-02-01T04:23:15;27.43;;;10.50;;
49540;SDS011;35432;43.566;1.398;2023-02-01T04:25:40;72.78;;;25.05;;
49540;SDS011;35432;43.566;1.398;2023-02-01T04:28:06;68.87;;;24.43;;
49540;SDS011;35432;43.566;1.398;2023-02-01T04:30:32;52.50;;;18.73;;
49540;SDS011;35432;43.566;1.398;2023-02-01T04:32:57;27.77;;;9.90;;
49540;SDS011;35432;43.566;1.398;2023-02-01T04:35:23;28.02;;;10.30;;
49540;SDS011;35432;43.566;1.398;2023-02-01T04:37:48;22.37;;;7.33;;
49540;SDS011;35432;43.566;1.398;2023-02-01T04:40:14;19.67;;;6.97;;
49540;SDS011;35432;43.566;1.398;2023-02-01T04:42:39;14.87;;;6.07;;
49540;SDS011;35432;43.566;1.398;2023-02-01T04:45:05;20.77;;;8.37;;
49540;SDS011;35432;43.566;1.398;2023-02-01T04:47:31;18.55;;;7.00;;
49540;SDS011;35432;43.566;1.398;2023-02-01T04:49:56;16.30;;;6.30;;
49540;SDS011;35432;43.566;1.398;2023-02-01T04:52:22;13.37;;;5.20;;
49540;SDS011;35432;43.566;1.398;2023-02-01T04:54:47;13.63;;;5.37;;
49540;SDS011;35432;43.566;1.398;2023-02-01T04:57:13;18.03;;;7.60;;
49540;SDS011;35432;43.566;1.398;2023-02-01T04:59:39;20.23;;;8.90;;
49540;SDS011;35432;43.566;1.398;2023-02-01T05:02:05;22.07;;;10.20;;
49540;SDS011;35432;43.566;1.398;2023-02-01T05:04:30;21.20;;;9.90;;
49540;SDS011;35432;43.566;1.398;2023-02-01T05:06:56;18.53;;;8.30;;
49540;SDS011;35432;43.566;1.398;2023-02-01T05:09:21;15.90;;;8.13;;
49540;SDS011;35432;43.566;1.398;2023-02-01T05:11:47;18.27;;;7.90;;
49540;SDS011;35432;43.566;1.398;2023-02-01T05:14:30;15.75;;;6.90;;
49540;SDS011;35432;43.566;1.398;2023-02-01T05:16:56;16.27;;;5.70;;
49540;SDS011;35432;43.566;1.398;2023-02-01T05:19:21;10.03;;;4.67;;
49540;SDS011;35432;43.566;1.398;2023-02-01T05:21:47;11.47;;;4.13;;
49540;SDS011;35432;43.566;1.398;2023-02-01T05:24:12;11.00;;;4.43;;
49540;SDS011;35432;43.566;1.398;2023-02-01T05:26:41;9.40;;;4.60;;
49540;SDS011;35432;43.566;1.398;2023-02-01T05:29:08;9.13;;;4.38;;
49540;SDS011;35432;43.566;1.398;2023-02-01T05:31:34;11.60;;;4.15;;
49540;SDS011;35432;43.566;1.398;2023-02-01T05:34:00;8.87;;;4.07;;
49540;SDS011;35432;43.566;1.398;2023-02-01T05:36:25;9.37;;;4.23;;
49540;SDS011;35432;43.566;1.398;2023-02-01T05:38:51;12.02;;;4.55;;
49540;SDS011;35432;43.566;1.398;2023-02-01T05:41:16;13.63;;;4.37;;
49540;SDS011;35432;43.566;1.398;2023-02-01T05:43:42;12.17;;;4.70;;
49540;SDS011;35432;43.566;1.398;2023-02-01T05:46:07;12.93;;;5.30;;
49540;SDS011;35432;43.566;1.398;2023-02-01T05:48:35;12.55;;;4.82;;
49540;SDS011;35432;43.566;1.398;2023-02-01T05:51:01;11.02;;;3.88;;
49540;SDS011;35432;43.566;1.398;2023-02-01T05:53:26;9.57;;;3.70;;
49540;SDS011;35432;43.566;1.398;2023-02-01T05:55:51;10.73;;;4.50;;
49540;SDS011;35432;43.566;1.398;2023-02-01T05:58:17;11.17;;;4.10;;
49540;SDS011;35432;43.566;1.398;2023-02-01T06:00:42;10.50;;;4.60;;
49540;SDS011;35432;43.566;1.398;2023-02-01T06:03:08;11.48;;;4.30;;
49540;SDS011;35432;43.566;1.398;2023-02-01T06:05:33;9.43;;;4.63;;
49540;SDS011;35432;43.566;1.398;2023-02-01T06:07:58;8.77;;;4.60;;
49540;SDS011;35432;43.566;1.398;2023-02-01T06:10:24;10.97;;;4.27;;
49540;SDS011;35432;43.566;1.398;2023-02-01T06:12:49;9.80;;;4.15;;
49540;SDS011;35432;43.566;1.398;2023-02-01T06:15:15;13.07;;;4.23;;
49540;SDS011;35432;43.566;1.398;2023-02-01T06:17:41;8.85;;;4.30;;
49540;SDS011;35432;43.566;1.398;2023-02-01T06:20:09;10.30;;;3.55;;
49540;SDS011;35432;43.566;1.398;2023-02-01T06:22:35;8.60;;;4.10;;
49540;SDS011;35432;43.566;1.398;2023-02-01T06:25:02;11.32;;;4.28;;
49540;SDS011;35432;43.566;1.398;2023-02-01T06:27:32;10.60;;;3.97;;
49540;SDS011;35432;43.566;1.398;2023-02-01T06:29:58;10.52;;;4.30;;
49540;SDS011;35432;43.566;1.398;2023-02-01T06:32:23;13.40;;;4.15;;
49540;SDS011;35432;43.566;1.398;2023-02-01T06:34:49;13.47;;;4.30;;
49540;SDS011;35432;43.566;1.398;2023-02-01T06:37:15;10.80;;;4.03;;
49540;SDS011;35432;43.566;1.398;2023-02-01T06:39:40;14.07;;;4.90;;
49540;SDS011;35432;43.566;1.398;2023-02-01T06:42:06;10.33;;;4.27;;
49540;SDS011;35432;43.566;1.398;2023-02-01T06:44:31;16.23;;;4.67;;
49540;SDS011;35432;43.566;1.398;2023-02-01T06:46:57;10.73;;;4.70;;
49540;SDS011;35432;43.566;1.398;2023-02-01T06:49:22;11.70;;;4.40;;
49540;SDS011;35432;43.566;1.398;2023-02-01T06:51:47;10.77;;;4.23;;
49540;SDS011;35432;43.566;1.398;2023-02-01T06:54:13;9.93;;;4.10;;
49540;SDS011;35432;43.566;1.398;2023-02-01T06:56:39;9.32;;;3.40;;
49540;SDS011;35432;43.566;1.398;2023-02-01T06:59:04;8.70;;;3.37;;
49540;SDS011;35432;43.566;1.398;2023-02-01T07:01:30;10.55;;;3.38;;
49540;SDS011;35432;43.566;1.398;2023-02-01T07:03:56;9.63;;;3.23;;
49540;SDS011;35432;43.566;1.398;2023-02-01T07:06:21;9.60;;;3.27;;
49540;SDS011;35432;43.566;1.398;2023-02-01T07:08:47;6.97;;;3.00;;
49540;SDS011;35432;43.566;1.398;2023-02-01T07:11:13;9.47;;;3.40;;
49540;SDS011;35432;43.566;1.398;2023-02-01T07:13:40;8.80;;;3.47;;
49540;SDS011;35432;43.566;1.398;2023-02-01T07:16:06;9.13;;;3.07;;
49540;SDS011;35432;43.566;1.398;2023-02-01T07:18:35;9.98;;;3.58;;
49540;SDS011;35432;43.566;1.398;2023-02-01T07:21:00;7.77;;;3.63;;
49540;SDS011;35432;43.566;1.398;2023-02-01T07:23:26;9.55;;;3.65;;
49540;SDS011;35432;43.566;1.398;2023-02-01T07:25:55;9.57;;;3.80;;
49540;SDS011;35432;43.566;1.398;2023-02-01T07:28:22;8.40;;;4.10;;
49540;SDS011;35432;43.566;1.398;2023-02-01T07:30:48;11.18;;;4.03;;
49540;SDS011;35432;43.566;1.398;2023-02-01T07:33:24;11.27;;;4.38;;
49540;SDS011;35432;43.566;1.398;2023-02-01T07:35:51;12.77;;;4.30;;
49540;SDS011;35432;43.566;1.398;2023-02-01T07:38:17;9.13;;;4.05;;
49540;SDS011;35432;43.566;1.398;2023-02-01T07:40:43;9.97;;;4.40;;
49540;SDS011;35432;43.566;1.398;2023-02-01T07:43:09;10.02;;;3.85;;
49540;SDS011;35432;43.566;1.398;2023-02-01T07:45:35;9.05;;;3.38;;
49540;SDS011;35432;43.566;1.398;2023-02-01T07:48:01;10.32;;;4.32;;
49540;SDS011;35432;43.566;1.398;2023-02-01T07:50:28;9.20;;;4.30;;
49540;SDS011;35432;43.566;1.398;2023-02-01T07:52:53;8.98;;;4.00;;
49540;SDS011;35432;43.566;1.398;2023-02-01T07:55:19;8.90;;;3.50;;
49540;SDS011;35432;43.566;1.398;2023-02-01T07:57:45;9.85;;;4.00;;
49540;SDS011;35432;43.566;1.398;2023-02-01T08:00:11;9.27;;;3.53;;
49540;SDS011;35432;43.566;1.398;2023-02-01T08:03:00;9.23;;;3.28;;
49540;SDS011;35432;43.566;1.398;2023-02-01T08:05:25;7.72;;;3.00;;
49540;SDS011;35432;43.566;1.398;2023-02-01T08:07:51;7.40;;;3.43;;
49540;SDS011;35432;43.566;1.398;2023-02-01T08:10:17;7.68;;;3.10;;
49540;SDS011;35432;43.566;1.398;2023-02-01T08:12:43;7.50;;;2.73;;
49540;SDS011;35432;43.566;1.398;2023-02-01T08:15:13;7.53;;;3.35;;
49540;SDS011;35432;43.566;1.398;2023-02-01T08:17:40;8.45;;;4.55;;
49540;SDS011;35432;43.566;1.398;2023-02-01T08:20:05;8.73;;;3.80;;
49540;SDS011;35432;43.566;1.398;2023-02-01T08:22:32;8.43;;;3.72;;
49540;SDS011;35432;43.566;1.398;2023-02-01T08:24:57;8.00;;;3.50;;
49540;SDS011;35432;43.566;1.398;2023-02-01T08:27:26;9.35;;;4.13;;
49540;SDS011;35432;43.566;1.398;2023-02-01T08:29:52;9.70;;;4.22;;
49540;SDS011;35432;43.566;1.398;2023-02-01T08:32:19;9.00;;;3.80;;
49540;SDS011;35432;43.566;1.398;2023-02-01T08:34:44;8.27;;;3.35;;
49540;SDS011;35432;43.566;1.398;2023-02-01T08:37:09;7.73;;;3.13;;
49540;SDS011;35432;43.566;1.398;2023-02-01T08:39:35;7.27;;;2.60;;
49540;SDS011;35432;43.566;1.398;2023-02-01T08:42:01;8.15;;;2.40;;
49540;SDS011;35432;43.566;1.398;2023-02-01T08:44:45;9.55;;;3.03;;
49540;SDS011;35432;43.566;1.398;2023-02-01T08:47:12;9.20;;;3.23;;
49540;SDS011;35432;43.566;1.398;2023-02-01T08:49:37;8.23;;;2.90;;
49540;SDS011;35432;43.566;1.398;2023-02-01T08:52:03;9.23;;;2.80;;
49540;SDS011;35432;43.566;1.398;2023-02-01T08:54:28;6.17;;;2.60;;
49540;SDS011;35432;43.566;1.398;2023-02-01T08:56:53;10.90;;;3.40;;
49540;SDS011;35432;43.566;1.398;2023-02-01T08:59:19;11.02;;;2.75;;
49540;SDS011;35432;43.566;1.398;2023-02-01T09:01:45;9.23;;;2.70;;
49540;SDS011;35432;43.566;1.398;2023-02-01T09:04:10;10.93;;;2.78;;
49540;SDS011;35432;43.566;1.398;2023-02-01T09:06:36;14.33;;;2.77;;
49540;SDS011;35432;43.566;1.398;2023-02-01T09:09:01;10.50;;;2.80;;
49540;SDS011;35432;43.566;1.398;2023-02-01T09:11:27;7.38;;;2.40;;
49540;SDS011;35432;43.566;1.398;2023-02-01T09:13:52;10.53;;;2.47;;
49540;SDS011;35432;43.566;1.398;2023-02-01T09:16:18;9.77;;;2.73;;
49540;SDS011;35432;43.566;1.398;2023-02-01T09:18:43;14.17;;;3.30;;
49540;SDS011;35432;43.566;1.398;2023-02-01T09:21:09;11.40;;;2.30;;
49540;SDS011;35432;43.566;1.398;2023-02-01T09:23:35;8.47;;;2.27;;
49540;SDS011;35432;43.566;1.398;2023-02-01T09:26:00;6.45;;;2.30;;
49540;SDS011;35432;43.566;1.398;2023-02-01T09:28:28;8.23;;;2.17;;
49540;SDS011;35432;43.566;1.398;2023-02-01T09:30:57;7.80;;;2.23;;
49540;SDS011;35432;43.566;1.398;2023-02-01T09:33:24;7.00;;;2.35;;
49540;SDS011;35432;43.566;1.398;2023-02-01T09:35:54;8.55;;;2.10;;
49540;SDS011;35432;43.566;1.398;2023-02-01T09:38:24;7.43;;;2.10;;
49540;SDS011;35432;43.566;1.398;2023-02-01T09:40:50;9.87;;;2.40;;
49540;SDS011;35432;43.566;1.398;2023-02-01T09:43:19;10.20;;;2.03;;
49540;SDS011;35432;43.566;1.398;2023-02-01T09:48:15;11.13;;;1.67;;
49540;SDS011;35432;43.566;1.398;2023-02-01T09:50:47;8.00;;;1.90;;
49540;SDS011;35432;43.566;1.398;2023-02-01T09:55:47;9.20;;;2.10;;
49540;SDS011;35432;43.566;1.398;2023-02-01T09:58:31;7.72;;;1.95;;
49540;SDS011;35432;43.566;1.398;2023-02-01T10:00:58;6.45;;;1.95;;
49540;SDS011;35432;43.566;1.398;2023-02-01T10:03:26;9.80;;;2.13;;
49540;SDS011;35432;43.566;1.398;2023-02-01T10:11:18;10.45;;;2.20;;
49540;SDS011;35432;43.566;1.398;2023-02-01T10:14:11;9.88;;;2.40;;
49540;SDS011;35432;43.566;1.398;2023-02-01T10:22:10;7.72;;;2.17;;
49540;SDS011;35432;43.566;1.398;2023-02-01T10:24:42;8.77;;;1.95;;
49540;SDS011;35432;43.566;1.398;2023-02-01T10:27:13;9.98;;;2.03;;
49540;SDS011;35432;43.566;1.398;2023-02-01T10:29:46;9.30;;;2.63;;
49540;SDS011;35432;43.566;1.398;2023-02-01T10:32:18;9.13;;;1.73;;
49540;SDS011;35432;43.566;1.398;2023-02-01T10:34:52;9.98;;;2.22;;
49540;SDS011;35432;43.566;1.398;2023-02-01T10:37:27;8.82;;;2.00;;
49540;SDS011;35432;43.566;1.398;2023-02-01T10:39:56;8.57;;;1.90;;
49540;SDS011;35432;43.566;1.398;2023-02-01T10:42:25;7.47;;;1.88;;
49540;SDS011;35432;43.566;1.398;2023-02-01T10:44:53;8.07;;;1.70;;
49540;SDS011;35432;43.566;1.398;2023-02-01T10:47:21;8.30;;;2.08;;
49540;SDS011;35432;43.566;1.398;2023-02-01T10:49:50;9.57;;;2.20;;
49540;SDS011;35432;43.566;1.398;2023-02-01T10:52:29;9.47;;;2.00;;
49540;SDS011;35432;43.566;1.398;2023-02-01T10:57:57;8.85;;;2.30;;
49540;SDS011;35432;43.566;1.398;2023-02-01T11:00:25;8.20;;;1.77;;
49540;SDS011;35432;43.566;1.398;2023-02-01T11:02:51;8.38;;;2.03;;
49540;SDS011;35432;43.566;1.398;2023-02-01T11:05:18;7.87;;;1.97;;
49540;SDS011;35432;43.566;1.398;2023-02-01T11:07:50;8.63;;;1.77;;
49540;SDS011;35432;43.566;1.398;2023-02-01T11:10:39;8.88;;;1.77;;
49540;SDS011;35432;43.566;1.398;2023-02-01T11:13:11;9.23;;;1.77;;
49540;SDS011;35432;43.566;1.398;2023-02-01T11:15:44;8.67;;;1.53;;
49540;SDS011;35432;43.566;1.398;2023-02-01T11:18:17;6.28;;;1.60;;
49540;SDS011;35432;43.566;1.398;2023-02-01T11:20:44;10.18;;;1.65;;
49540;SDS011;35432;43.566;1.398;2023-02-01T11:23:18;10.77;;;1.60;;
49540;SDS011;35432;43.566;1.398;2023-02-01T11:25:56;7.35;;;2.10;;
49540;SDS011;35432;43.566;1.398;2023-02-01T11:28:25;9.23;;;1.80;;
49540;SDS011;35432;43.566;1.398;2023-02-01T11:30:56;5.57;;;1.52;;
49540;SDS011;35432;43.566;1.398;2023-02-01T11:33:25;7.93;;;2.15;;
49540;SDS011;35432;43.566;1.398;2023-02-01T11:35:58;7.85;;;1.63;;
49540;SDS011;35432;43.566;1.398;2023-02-01T11:40:54;8.13;;;2.03;;
49540;SDS011;35432;43.566;1.398;2023-02-01T11:43:22;7.53;;;2.30;;
49540;SDS011;35432;43.566;1.398;2023-02-01T11:46:00;8.73;;;2.00;;
49540;SDS011;35432;43.566;1.398;2023-02-01T11:48:28;7.05;;;1.85;;
49540;SDS011;35432;43.566;1.398;2023-02-01T12:17:41;5.35;;;1.60;;
49540;SDS011;35432;43.566;1.398;2023-02-01T12:31:03;4.85;;;1.35;;
49540;SDS011;35432;43.566;1.398;2023-02-01T12:39:32;4.50;;;1.50;;
49540;SDS011;35432;43.566;1.398;2023-02-01T12:44:46;4.28;;;1.38;;
49540;SDS011;35432;43.566;1.398;2023-02-01T12:53:19;4.30;;;1.60;;
49540;SDS011;35432;43.566;1.398;2023-02-01T12:55:52;6.45;;;1.70;;
49540;SDS011;35432;43.566;1.398;2023-02-01T12:58:24;6.07;;;1.73;;
49540;SDS011;35432;43.566;1.398;2023-02-01T13:03:40;4.38;;;1.30;;
49540;SDS011;35432;43.566;1.398;2023-02-01T13:06:16;6.00;;;1.80;;
49540;SDS011;35432;43.566;1.398;2023-02-01T13:08:48;6.38;;;2.00;;
49540;SDS011;35432;43.566;1.398;2023-02-01T13:11:42;5.65;;;1.75;;
49540;SDS011;35432;43.566;1.398;2023-02-01T13:16:49;5.25;;;1.70;;
49540;SDS011;35432;43.566;1.398;2023-02-01T13:19:20;5.60;;;1.40;;
49540;SDS011;35432;43.566;1.398;2023-02-01T13:21:50;5.35;;;1.50;;
49540;SDS011;35432;43.566;1.398;2023-02-01T13:26:56;5.85;;;2.05;;
49540;SDS011;35432;43.566;1.398;2023-02-01T13:29:22;5.03;;;1.40;;
49540;SDS011;35432;43.566;1.398;2023-02-01T13:43:38;5.77;;;1.23;;
49540;SDS011;35432;43.566;1.398;2023-02-01T13:46:07;5.43;;;1.52;;
49540;SDS011;35432;43.566;1.398;2023-02-01T13:51:15;6.82;;;1.60;;
49540;SDS011;35432;43.566;1.398;2023-02-01T13:53:55;4.65;;;1.20;;
49540;SDS011;35432;43.566;1.398;2023-02-01T13:56:21;4.90;;;1.30;;
49540;SDS011;35432;43.566;1.398;2023-02-01T13:58:49;6.18;;;1.38;;
49540;SDS011;35432;43.566;1.398;2023-02-01T14:03:54;6.47;;;1.27;;
49540;SDS011;35432;43.566;1.398;2023-02-01T14:11:39;4.95;;;1.40;;
49540;SDS011;35432;43.566;1.398;2023-02-01T14:16:42;4.67;;;1.60;;
49540;SDS011;35432;43.566;1.398;2023-02-01T14:19:26;5.28;;;1.52;;
49540;SDS011;35432;43.566;1.398;2023-02-01T14:21:53;5.95;;;1.02;;
49540;SDS011;35432;43.566;1.398;2023-02-01T14:24:30;6.72;;;1.20;;
49540;SDS011;35432;43.566;1.398;2023-02-01T14:27:01;5.57;;;1.40;;
49540;SDS011;35432;43.566;1.398;2023-02-01T14:29:41;7.13;;;1.53;;
49540;SDS011;35432;43.566;1.398;2023-02-01T14:44:51;6.88;;;1.50;;
49540;SDS011;35432;43.566;1.398;2023-02-01T14:52:35;5.25;;;1.50;;
49540;SDS011;35432;43.566;1.398;2023-02-01T14:55:37;4.07;;;1.30;;
49540;SDS011;35432;43.566;1.398;2023-02-01T15:01:05;5.80;;;1.75;;
49540;SDS011;35432;43.566;1.398;2023-02-01T15:11:33;7.30;;;2.13;;
49540;SDS011;35432;43.566;1.398;2023-02-01T15:14:35;5.95;;;2.05;;
49540;SDS011;35432;43.566;1.398;2023-02-01T15:17:15;5.07;;;1.80;;
49540;SDS011;35432;43.566;1.398;2023-02-01T15:19:52;8.07;;;2.45;;
49540;SDS011;35432;43.566;1.398;2023-02-01T15:22:21;6.50;;;1.95;;
49540;SDS011;35432;43.566;1.398;2023-02-01T15:24:53;5.77;;;1.83;;
49540;SDS011;35432;43.566;1.398;2023-02-01T15:27:20;8.57;;;2.40;;
49540;SDS011;35432;43.566;1.398;2023-02-01T15:29:46;8.45;;;2.58;;
49540;SDS011;35432;43.566;1.398;2023-02-01T15:34:57;6.25;;;1.90;;
49540;SDS011;35432;43.566;1.398;2023-02-01T15:37:23;7.95;;;2.03;;
49540;SDS011;35432;43.566;1.398;2023-02-01T15:40:14;7.00;;;2.30;;
49540;SDS011;35432;43.566;1.398;2023-02-01T15:42:52;5.40;;;1.70;;
49540;SDS011;35432;43.566;1.398;2023-02-01T15:45:20;5.38;;;1.85;;
49540;SDS011;35432;43.566;1.398;2023-02-01T15:47:49;7.55;;;3.13;;
49540;SDS011;35432;43.566;1.398;2023-02-01T15:50:18;7.32;;;2.50;;
49540;SDS011;35432;43.566;1.398;2023-02-01T15:52:46;8.65;;;2.72;;
49540;SDS011;35432;43.566;1.398;2023-02-01T15:55:20;6.00;;;2.00;;
49540;SDS011;35432;43.566;1.398;2023-02-01T15:57:58;6.60;;;1.90;;
49540;SDS011;35432;43.566;1.398;2023-02-01T16:02:59;5.03;;;1.67;;
49540;SDS011;35432;43.566;1.398;2023-02-01T16:05:34;7.13;;;1.87;;
49540;SDS011;35432;43.566;1.398;2023-02-01T16:08:20;6.50;;;1.60;;
49540;SDS011;35432;43.566;1.398;2023-02-01T16:10:51;5.38;;;1.50;;
49540;SDS011;35432;43.566;1.398;2023-02-01T16:13:18;7.20;;;2.42;;
49540;SDS011;35432;43.566;1.398;2023-02-01T16:15:45;5.57;;;1.20;;
49540;SDS011;35432;43.566;1.398;2023-02-01T16:18:11;4.27;;;1.10;;
49540;SDS011;35432;43.566;1.398;2023-02-01T16:20:38;5.43;;;1.25;;
49540;SDS011;35432;43.566;1.398;2023-02-01T16:23:05;6.00;;;2.13;;
49540;SDS011;35432;43.566;1.398;2023-02-01T16:25:33;7.03;;;2.15;;
49540;SDS011;35432;43.566;1.398;2023-02-01T16:27:59;5.97;;;2.08;;
49540;SDS011;35432;43.566;1.398;2023-02-01T16:30:24;6.50;;;2.10;;
49540;SDS011;35432;43.566;1.398;2023-02-01T16:32:54;7.45;;;2.65;;
49540;SDS011;35432;43.566;1.398;2023-02-01T16:35:25;7.15;;;2.30;;
49540;SDS011;35432;43.566;1.398;2023-02-01T16:37:56;5.23;;;1.67;;
49540;SDS011;35432;43.566;1.398;2023-02-01T16:40:23;5.07;;;1.60;;
49540;SDS011;35432;43.566;1.398;2023-02-01T16:42:50;5.03;;;1.50;;
49540;SDS011;35432;43.566;1.398;2023-02-01T16:45:16;5.93;;;1.63;;
49540;SDS011;35432;43.566;1.398;2023-02-01T16:47:45;5.75;;;1.50;;
49540;SDS011;35432;43.566;1.398;2023-02-01T16:50:15;5.13;;;1.70;;
49540;SDS011;35432;43.566;1.398;2023-02-01T16:52:41;4.65;;;1.23;;
49540;SDS011;35432;43.566;1.398;2023-02-01T16:55:12;5.77;;;1.30;;
49540;SDS011;35432;43.566;1.398;2023-02-01T16:57:40;5.70;;;1.50;;
49540;SDS011;35432;43.566;1.398;2023-02-01T17:00:07;4.28;;;1.30;;
49540;SDS011;35432;43.566;1.398;2023-02-01T17:02:34;4.78;;;1.40;;
49540;SDS011;35432;43.566;1.398;2023-02-01T17:04:59;4.73;;;1.40;;
49540;SDS011;35432;43.566;1.398;2023-02-01T17:07:25;4.13;;;1.37;;
49540;SDS011;35432;43.566;1.398;2023-02-01T17:09:51;4.65;;;1.30;;
49540;SDS011;35432;43.566;1.398;2023-02-01T17:14:49;9.37;;;3.07;;
49540;SDS011;35432;43.566;1.398;2023-02-01T17:17:16;7.45;;;2.20;;
49540;SDS011;35432;43.566;1.398;2023-02-01T17:19:43;8.02;;;2.35;;
49540;SDS011;35432;43.566;1.398;2023-02-01T17:22:11;8.48;;;3.50;;
49540;SDS011;35432;43.566;1.398;2023-02-01T17:24:38;12.43;;;4.60;;
49540;SDS011;35432;43.566;1.398;2023-02-01T17:27:04;11.63;;;5.30;;
49540;SDS011;35432;43.566;1.398;2023-02-01T17:29:29;12.10;;;5.60;;
49540;SDS011;35432;43.566;1.398;2023-02-01T17:31:54;12.77;;;4.93;;
49540;SDS011;35432;43.566;1.398;2023-02-01T17:34:20;10.57;;;4.78;;
49540;SDS011;35432;43.566;1.398;2023-02-01T17:36:47;14.15;;;7.30;;
49540;SDS011;35432;43.566;1.398;2023-02-01T17:39:13;15.35;;;6.55;;
49540;SDS011;35432;43.566;1.398;2023-02-01T17:41:59;12.30;;;5.90;;
49540;SDS011;35432;43.566;1.398;2023-02-01T17:44:25;14.63;;;6.97;;
49540;SDS011;35432;43.566;1.398;2023-02-01T17:46:51;17.47;;;8.13;;
49540;SDS011;35432;43.566;1.398;2023-02-01T17:49:16;13.07;;;7.20;;
49540;SDS011;35432;43.566;1.398;2023-02-01T17:51:41;13.32;;;5.88;;
49540;SDS011;35432;43.566;1.398;2023-02-01T17:54:13;10.33;;;4.77;;
49540;SDS011;35432;43.566;1.398;2023-02-01T17:56:39;14.35;;;6.00;;